Friday, February 23, 2018, 8:08 PM GMT
Back to Local

CYQM, Moncton, N. B.

Location: , , Canada Lat: 46.117
Local Time: 8:08 PM GMT (20:08 GMT) Lon: -64.683
Time Zone: GMT Elev: 232 ft

Show me the last for .
Show Decoded

2018-02-23 19:00 METAR CYQM 231900Z 24008KT 15SM BKN250 M03/M15 A3051 RMK CI6 SLP340 =
2018-02-23 18:00 METAR CYQM 231800Z VRB06KT 15SM SCT250 M03/M15 A3056 RMK CI3 PRESFR SLP356 =
2018-02-23 17:00 METAR CYQM 231700Z 34004KT 260V360 15SM SCT250 M04/M15 A3061 RMK CI3 SLP373 =
2018-02-23 16:00 METAR CYQM 231600Z 31006KT 250V320 15SM FEW230 M05/M16 A3065 RMK CI1 SLP385 =
2018-02-23 15:00 METAR CYQM 231500Z 31008KT 15SM FEW030 FEW230 M06/M16 A3067 RMK CU1CI1 CU TR
                 SLP392 =
2018-02-23 14:00 METAR CYQM 231400Z 29007KT 260V330 15SM FEW030 FEW230 M07/M16 A3069 RMK CU1CI1
                 CU TR SLP398 =
2018-02-23 13:00 METAR CYQM 231300Z 24007KT 15SM FEW030 M09/M15 A3069 RMK CU1 CU TR SLP399 =
2018-02-23 12:00 METAR CYQM 231200Z 26005KT 15SM FEW025 M10/M16 A3069 RMK CU1 CU TR SLP399 =
2018-02-23 11:00 METAR CYQM 231100Z 23006KT 15SM FEW023 M11/M16 A3069 RMK CU1 CU TR SLP400 =
2018-02-23 10:00 METAR CYQM 231000Z 30005KT 15SM SKC M10/M16 A3067 RMK SLP394 =
2018-02-23 09:00 METAR CYQM 230900Z 31004KT 15SM FEW220 M10/M16 A3069 RMK CI2 SLP398 =
2018-02-23 08:00 METAR CYQM 230800Z 30004KT 15SM SKC M09/M16 A3068 RMK SLP396 =
2018-02-23 07:00 METAR CYQM 230700Z 32005KT 15SM SKC M09/M16 A3067 RMK SLP393 =
2018-02-23 06:00 METAR CYQM 230600Z 33005KT 15SM SKC M09/M16 A3067 RMK PRESRR SLP393 =
2018-02-23 05:00 METAR CYQM 230500Z 32005KT 15SM SKC M08/M15 A3064 RMK SLP382 =
2018-02-23 04:00 METAR CYQM 230400Z 27009KT 15SM FEW220 M07/M15 A3062 RMK CI1 SLP375 =
2018-02-23 03:00 METAR CYQM 230300Z 27007KT 15SM FEW220 M06/M14 A3061 RMK CI2 SLP371 =
2018-02-23 02:00 METAR CYQM 230200Z 30009KT 15SM FEW220 M05/M14 A3059 RMK CI2 SLP367 =
2018-02-23 01:00 METAR CYQM 230100Z 36004KT 15SM SCT220 M06/M10 A3059 RMK CI3 SLP364 =
2018-02-23 00:00 METAR CYQM 230000Z VRB02KT 15SM SCT150 BKN220 M04/M09 A3057 RMK AS3CS4 SLP357 =
2018-02-22 23:00 METAR CYQM 222300Z 09003KT 15SM BKN150 BKN240 M04/M09 A3056 RMK AS6CI1 SLP355 =
2018-02-22 22:00 METAR CYQM 222200Z 04004KT 15SM BKN180 OVC240 M04/M10 A3054 RMK AS7CS1 SLP347 =
2018-02-22 21:00 METAR CYQM 222100Z 02004KT 15SM BKN170 OVC240 M03/M10 A3053 RMK AS6CS2 SLP343 =

Support USWX by starting your Amazon purchase here.